createdAt,value
2023-02-15T00:00:45.083Z,1.64
2023-02-15T00:03:11.476Z,1.60
2023-02-15T00:05:37.783Z,1.56
2023-02-15T00:08:04.274Z,1.61
2023-02-15T00:10:30.571Z,1.55
2023-02-15T00:12:56.903Z,1.61
2023-02-15T00:15:23.215Z,1.60
2023-02-15T00:17:49.523Z,1.71
2023-02-15T00:20:15.884Z,1.57
2023-02-15T00:22:42.187Z,1.47
2023-02-15T00:25:08.526Z,1.47
2023-02-15T00:27:34.799Z,1.39
2023-02-15T00:30:01.169Z,1.35
2023-02-15T00:32:27.472Z,1.34
2023-02-15T00:34:53.780Z,1.21
2023-02-15T00:37:20.081Z,1.27
2023-02-15T00:39:46.385Z,1.15
2023-02-15T00:42:12.679Z,1.10
2023-02-15T00:44:38.976Z,1.02
2023-02-15T00:47:05.274Z,1.00
2023-02-15T00:49:31.583Z,0.98
2023-02-15T00:51:57.877Z,0.92
2023-02-15T00:54:24.199Z,0.85
2023-02-15T00:56:50.526Z,0.89
2023-02-15T00:59:16.847Z,0.93
2023-02-15T01:01:43.218Z,0.94
2023-02-15T01:04:09.657Z,0.89
2023-02-15T01:06:36.045Z,0.94
2023-02-15T01:09:02.453Z,0.79
2023-02-15T01:11:28.744Z,0.73
2023-02-15T01:13:58.009Z,0.71
2023-02-15T01:16:27.056Z,0.64
2023-02-15T01:18:53.440Z,0.60
2023-02-15T01:21:21.685Z,0.59
2023-02-15T01:23:48.029Z,0.57
2023-02-15T01:26:15.328Z,0.54
2023-02-15T01:28:41.763Z,0.62
2023-02-15T01:31:10.592Z,0.59
2023-02-15T01:33:37.459Z,0.59
2023-02-15T01:36:05.070Z,0.59
2023-02-15T01:38:31.752Z,0.53
2023-02-15T01:40:58.056Z,0.44
2023-02-15T01:43:40.929Z,0.35
2023-02-15T01:46:09.952Z,0.44
2023-02-15T01:48:48.600Z,0.43
2023-02-15T01:51:18.867Z,0.37
2023-02-15T01:53:53.556Z,0.35
2023-02-15T01:56:28.502Z,0.27
2023-02-15T01:58:55.894Z,0.25
2023-02-15T02:01:22.798Z,0.36
2023-02-15T02:04:24.053Z,0.31
2023-02-15T02:06:52.157Z,0.37
2023-02-15T02:09:18.502Z,0.44
2023-02-15T02:11:48.253Z,0.30
2023-02-15T02:14:15.428Z,0.19
2023-02-15T02:17:07.602Z,0.22
2023-02-15T02:20:15.552Z,0.21
2023-02-15T02:23:03.524Z,0.20
2023-02-15T02:26:00.321Z,0.05
2023-02-15T02:29:04.224Z,0.01
2023-02-15T02:31:49.025Z,0.03
2023-02-15T02:34:18.147Z,0.15
2023-02-15T02:37:00.979Z,0.10
2023-02-15T02:39:35.884Z,0.01
2023-02-15T02:42:06.710Z,-0.01
2023-02-15T02:44:43.155Z,-0.10
2023-02-15T02:47:17.010Z,-0.11
2023-02-15T02:49:44.689Z,-0.24
2023-02-15T02:52:32.816Z,-0.24
2023-02-15T02:55:00.105Z,-0.30
2023-02-15T02:57:29.773Z,-0.30
2023-02-15T02:59:59.602Z,-0.29
2023-02-15T03:02:30.539Z,-0.38
2023-02-15T03:05:03.136Z,-0.37
2023-02-15T03:07:31.701Z,-0.30
2023-02-15T03:10:04.508Z,-0.28
2023-02-15T03:12:36.830Z,-0.33
2023-02-15T03:15:03.119Z,-0.22
2023-02-15T03:17:33.413Z,-0.32
2023-02-15T03:20:03.994Z,-0.38
2023-02-15T03:22:36.708Z,-0.43
2023-02-15T03:25:14.520Z,-0.52
2023-02-15T03:27:46.689Z,-0.60
2023-02-15T03:30:16.013Z,-0.63
2023-02-15T03:32:44.219Z,-0.66
2023-02-15T03:35:10.894Z,-0.72
2023-02-15T03:37:48.053Z,-0.71
2023-02-15T03:40:22.770Z,-0.60
2023-02-15T03:43:01.914Z,-0.70
2023-02-15T03:45:33.305Z,-0.76
2023-02-15T03:48:02.151Z,-0.79
2023-02-15T03:50:31.919Z,-0.89
2023-02-15T03:53:00.633Z,-0.86
2023-02-15T03:55:28.458Z,-0.96
2023-02-15T03:57:54.762Z,-1.00
2023-02-15T04:00:24.821Z,-0.97
2023-02-15T04:03:17.373Z,-0.94
2023-02-15T04:05:45.205Z,-0.99
2023-02-15T04:08:12.339Z,-0.99
2023-02-15T04:10:38.744Z,-0.97
2023-02-15T04:13:05.109Z,-0.89
2023-02-15T04:15:31.417Z,-0.75
2023-02-15T04:17:57.828Z,-0.87
2023-02-15T04:20:24.185Z,-0.88
2023-02-15T04:22:50.503Z,-0.89
2023-02-15T04:25:16.951Z,-0.89
2023-02-15T04:27:46.405Z,-0.80
2023-02-15T04:30:14.035Z,-0.83
2023-02-15T04:32:40.545Z,-0.83
2023-02-15T04:35:07.703Z,-0.84
2023-02-15T04:37:34.338Z,-0.82
2023-02-15T04:40:00.656Z,-0.85
2023-02-15T04:42:27.361Z,-0.85
2023-02-15T04:44:54.407Z,-0.89
2023-02-15T04:47:20.937Z,-0.92
2023-02-15T04:49:47.264Z,-0.86
2023-02-15T04:52:13.706Z,-0.86
2023-02-15T04:54:40.032Z,-0.88
2023-02-15T04:57:06.826Z,-0.99
2023-02-15T04:59:33.341Z,-0.88
2023-02-15T05:01:59.692Z,-0.94
2023-02-15T05:04:26.078Z,-0.96
2023-02-15T05:06:52.409Z,-0.97
2023-02-15T05:09:18.704Z,-0.90
2023-02-15T05:11:45.025Z,-0.98
2023-02-15T05:14:11.330Z,-0.83
2023-02-15T05:16:37.802Z,-0.83
2023-02-15T05:19:04.520Z,-0.83
2023-02-15T05:21:30.991Z,-0.80
2023-02-15T05:23:57.408Z,-0.85
2023-02-15T05:26:25.334Z,-0.72
2023-02-15T05:28:51.647Z,-0.78
2023-02-15T05:31:19.632Z,-0.79
2023-02-15T05:33:46.450Z,-0.68
2023-02-15T05:36:13.042Z,-0.66
2023-02-15T05:38:39.810Z,-0.76
2023-02-15T05:41:07.454Z,-0.69
2023-02-15T05:43:34.259Z,-0.81
2023-02-15T05:46:01.561Z,-0.71
2023-02-15T05:48:28.841Z,-0.90
2023-02-15T05:51:09.784Z,-0.83
2023-02-15T05:53:38.772Z,-0.87
2023-02-15T05:56:07.241Z,-0.92
2023-02-15T05:58:36.882Z,-0.97
2023-02-15T06:01:15.040Z,-0.91
2023-02-15T06:03:41.551Z,-0.74
2023-02-15T06:06:08.228Z,-0.76
2023-02-15T06:08:36.380Z,-0.69
2023-02-15T06:11:02.868Z,-0.73
2023-02-15T06:13:29.524Z,-0.83
2023-02-15T06:15:56.136Z,-0.92
2023-02-15T06:18:22.539Z,-0.93
2023-02-15T06:20:49.687Z,-1.06
2023-02-15T06:23:16.242Z,-1.00
2023-02-15T06:25:42.635Z,-0.97
2023-02-15T06:28:09.093Z,-1.02
2023-02-15T06:30:35.413Z,-0.94
2023-02-15T06:33:01.736Z,-0.77
2023-02-15T06:35:28.275Z,-0.77
2023-02-15T06:37:54.616Z,-0.74
2023-02-15T06:40:21.055Z,-0.82
2023-02-15T06:42:47.404Z,-0.88
2023-02-15T06:45:14.318Z,-0.85
2023-02-15T06:47:40.759Z,-0.75
2023-02-15T06:50:08.231Z,-0.86
2023-02-15T06:52:34.788Z,-0.82
2023-02-15T06:55:01.279Z,-0.73
2023-02-15T06:57:27.641Z,-0.69
2023-02-15T06:59:53.988Z,-0.66
2023-02-15T07:02:20.471Z,-0.63
2023-02-15T07:04:47.025Z,-0.64
2023-02-15T07:07:13.831Z,-0.66
2023-02-15T07:09:40.407Z,-0.66
2023-02-15T07:12:07.385Z,-0.71
2023-02-15T07:14:33.906Z,-0.68
2023-02-15T07:17:00.338Z,-0.74
2023-02-15T07:19:26.877Z,-0.65
2023-02-15T07:21:53.305Z,-0.55
2023-02-15T07:24:19.940Z,-0.44
2023-02-15T07:26:46.381Z,-0.41
2023-02-15T07:29:12.815Z,-0.45
2023-02-15T07:31:39.551Z,-0.47
2023-02-15T07:34:07.518Z,-0.51
2023-02-15T07:36:33.974Z,-0.42
2023-02-15T07:39:00.303Z,-0.43
2023-02-15T07:41:26.750Z,-0.43
2023-02-15T07:43:53.115Z,-0.56
2023-02-15T07:46:19.690Z,-0.52
2023-02-15T07:48:46.349Z,-0.37
2023-02-15T07:51:13.637Z,-0.28
2023-02-15T07:53:40.382Z,-0.17
2023-02-15T07:56:10.829Z,-0.15
2023-02-15T07:58:37.704Z,-0.11
2023-02-15T08:01:04.032Z,-0.20
2023-02-15T08:03:30.431Z,-0.05
2023-02-15T08:05:59.776Z,0.02
2023-02-15T08:08:27.917Z,-0.02
2023-02-15T08:11:14.948Z,-0.01
2023-02-15T08:13:43.794Z,0.10
2023-02-15T08:16:12.416Z,0.05
2023-02-15T08:18:40.521Z,-0.02
2023-02-15T08:21:06.871Z,0.08
2023-02-15T08:23:33.826Z,0.20
2023-02-15T08:26:01.535Z,0.16
2023-02-15T08:28:28.041Z,0.28
2023-02-15T08:30:54.467Z,0.42
2023-02-15T08:33:20.858Z,0.45
2023-02-15T08:35:47.381Z,0.61
2023-02-15T08:38:13.790Z,0.67
2023-02-15T08:40:40.251Z,0.73
2023-02-15T08:43:06.786Z,0.67
2023-02-15T08:45:33.250Z,0.88
2023-02-15T08:47:59.689Z,0.93
2023-02-15T08:50:26.262Z,1.06
2023-02-15T08:52:52.667Z,1.34
2023-02-15T08:55:19.179Z,1.60
2023-02-15T08:57:45.677Z,1.52
2023-02-15T09:00:12.596Z,1.37
2023-02-15T09:02:39.025Z,1.33
2023-02-15T09:05:05.790Z,1.28
2023-02-15T09:07:32.312Z,1.40
2023-02-15T09:09:58.988Z,1.48
2023-02-15T09:12:25.409Z,1.59
2023-02-15T09:14:51.835Z,1.79
2023-02-15T09:17:18.229Z,1.83
2023-02-15T09:19:44.547Z,1.96
2023-02-15T09:22:11.021Z,2.08
2023-02-15T09:24:37.488Z,2.16
2023-02-15T09:27:04.055Z,2.43
2023-02-15T09:29:30.561Z,2.55
2023-02-15T09:31:57.213Z,2.55
2023-02-15T09:34:24.158Z,2.49
2023-02-15T09:36:51.365Z,2.55
2023-02-15T09:39:20.853Z,2.53
2023-02-15T09:41:53.079Z,2.69
2023-02-15T09:44:32.147Z,2.67
2023-02-15T09:47:11.575Z,2.44
2023-02-15T09:50:04.018Z,2.47
2023-02-15T09:52:36.493Z,2.60
2023-02-15T09:55:02.800Z,2.70
2023-02-15T09:58:17.109Z,2.74
2023-02-15T10:01:01.978Z,2.90
2023-02-15T10:03:46.701Z,2.83
2023-02-15T10:06:27.654Z,2.88
2023-02-15T10:09:22.034Z,3.05
2023-02-15T10:11:51.236Z,3.38
2023-02-15T10:14:29.633Z,3.39
2023-02-15T10:17:33.462Z,3.42
2023-02-15T10:20:18.081Z,3.56
2023-02-15T10:23:02.700Z,3.62
2023-02-15T10:25:49.725Z,3.76
2023-02-15T10:28:24.368Z,3.98
2023-02-15T10:30:55.019Z,4.07
2023-02-15T10:33:43.793Z,4.19
2023-02-15T10:36:27.625Z,4.34
2023-02-15T10:38:53.945Z,4.47
2023-02-15T10:41:47.749Z,4.47
2023-02-15T10:44:46.191Z,4.64
2023-02-15T10:47:28.888Z,4.61
2023-02-15T10:50:18.680Z,4.71
2023-02-15T10:53:06.290Z,4.70
2023-02-15T10:55:48.036Z,4.79
2023-02-15T10:58:37.377Z,4.94
2023-02-15T11:01:18.597Z,5.05
2023-02-15T11:04:06.948Z,5.13
2023-02-15T11:06:37.187Z,5.20
2023-02-15T11:09:10.635Z,5.25
2023-02-15T11:11:39.569Z,5.22
2023-02-15T11:14:28.934Z,5.35
2023-02-15T11:17:02.875Z,5.39
2023-02-15T11:19:42.723Z,5.44
2023-02-15T11:22:11.314Z,5.40
2023-02-15T11:24:45.385Z,5.62
2023-02-15T11:27:25.181Z,5.72
2023-02-15T11:30:05.687Z,5.70
2023-02-15T11:32:36.484Z,5.65
2023-02-15T11:35:12.070Z,5.55
2023-02-15T11:37:49.590Z,5.64
2023-02-15T11:40:27.707Z,5.81
2023-02-15T11:42:57.569Z,5.92
2023-02-15T11:45:30.019Z,6.02
2023-02-15T11:47:58.465Z,6.21
2023-02-15T11:50:28.535Z,6.28
2023-02-15T11:53:02.564Z,6.32
2023-02-15T11:55:29.693Z,6.46
2023-02-15T11:58:04.017Z,6.50
2023-02-15T12:00:37.897Z,6.57
2023-02-15T12:03:13.612Z,6.53
2023-02-15T12:05:43.858Z,6.55
2023-02-15T12:08:17.669Z,6.61
2023-02-15T12:11:06.335Z,6.67
2023-02-15T12:13:32.611Z,6.70
2023-02-15T12:16:05.518Z,6.82
2023-02-15T12:18:39.370Z,6.82
2023-02-15T12:21:12.217Z,6.86
2023-02-15T12:23:56.187Z,6.94
2023-02-15T12:26:31.281Z,7.01
2023-02-15T12:29:01.321Z,7.05
2023-02-15T12:31:33.173Z,7.09
2023-02-15T12:34:03.694Z,6.92
2023-02-15T12:36:33.886Z,7.00
2023-02-15T12:39:20.091Z,6.98
2023-02-15T12:42:00.109Z,7.14
2023-02-15T12:44:31.834Z,7.39
2023-02-15T12:47:06.642Z,7.52
2023-02-15T12:49:38.025Z,7.48
2023-02-15T12:52:25.606Z,7.54
2023-02-15T12:54:52.422Z,7.55
2023-02-15T12:57:33.976Z,7.38
2023-02-15T13:00:03.958Z,7.28
2023-02-15T13:02:44.090Z,7.36
2023-02-15T13:05:27.688Z,7.40
2023-02-15T13:08:00.487Z,7.57
2023-02-15T13:10:31.641Z,7.80
2023-02-15T13:12:58.570Z,7.80
2023-02-15T13:15:36.589Z,7.79
2023-02-15T13:18:05.155Z,7.77
2023-02-15T13:20:35.211Z,7.88
2023-02-15T13:23:12.606Z,8.09
2023-02-15T13:25:46.679Z,8.20
2023-02-15T13:28:16.004Z,8.22
2023-02-15T13:30:48.076Z,8.25
2023-02-15T13:33:26.173Z,8.32
2023-02-15T13:36:18.081Z,8.29
2023-02-15T13:38:52.866Z,8.32
2023-02-15T13:41:49.297Z,8.42
2023-02-15T13:44:33.414Z,8.53
2023-02-15T13:47:23.421Z,8.63
2023-02-15T13:49:55.548Z,8.57
2023-02-15T13:52:24.521Z,8.71
2023-02-15T13:55:21.740Z,8.72
2023-02-15T13:58:17.456Z,8.73
2023-02-15T14:00:43.699Z,8.60
2023-02-15T14:03:45.126Z,8.79
2023-02-15T14:06:39.468Z,8.89
2023-02-15T14:09:18.475Z,9.02
2023-02-15T14:12:10.070Z,8.93
2023-02-15T14:14:48.399Z,9.03
2023-02-15T14:17:35.403Z,9.08
2023-02-15T14:20:17.280Z,8.95
2023-02-15T14:22:48.440Z,8.84
2023-02-15T14:25:30.092Z,8.85
2023-02-15T14:28:15.545Z,8.92
2023-02-15T14:30:51.393Z,8.88
2023-02-15T14:33:40.069Z,8.91
2023-02-15T14:36:09.193Z,8.86
2023-02-15T14:38:47.340Z,8.86
2023-02-15T14:41:25.328Z,8.98
2023-02-15T14:44:16.881Z,8.89
2023-02-15T14:46:54.206Z,9.00
2023-02-15T14:49:22.425Z,8.94
2023-02-15T14:51:48.676Z,8.99
2023-02-15T14:54:17.928Z,8.89
2023-02-15T14:56:45.353Z,8.76
2023-02-15T14:59:21.787Z,8.58
2023-02-15T15:02:23.579Z,8.52
2023-02-15T15:04:52.660Z,8.53
2023-02-15T15:07:23.675Z,8.46
2023-02-15T15:10:01.399Z,8.36
2023-02-15T15:12:27.661Z,8.40
2023-02-15T15:14:54.739Z,8.41
2023-02-15T15:17:36.362Z,8.27
2023-02-15T15:20:04.610Z,8.17
2023-02-15T15:22:32.741Z,8.06
2023-02-15T15:25:01.265Z,8.10
2023-02-15T15:27:52.038Z,8.00
2023-02-15T15:30:18.355Z,7.92
2023-02-15T15:32:55.972Z,7.92
2023-02-15T15:35:48.832Z,7.83
2023-02-15T15:38:38.870Z,7.74
2023-02-15T15:41:37.583Z,7.61
2023-02-15T15:44:09.780Z,7.67
2023-02-15T15:47:00.793Z,7.52
2023-02-15T15:49:32.237Z,7.34
2023-02-15T15:52:03.095Z,7.45
2023-02-15T15:54:30.773Z,7.49
2023-02-15T15:57:03.428Z,7.38
2023-02-15T15:59:33.555Z,7.22
2023-02-15T16:02:07.698Z,7.15
2023-02-15T16:04:35.677Z,7.00
2023-02-15T16:07:16.965Z,6.89
2023-02-15T16:10:03.622Z,6.79
2023-02-15T16:12:33.772Z,6.77
2023-02-15T16:15:05.233Z,6.66
2023-02-15T16:17:34.066Z,6.57
2023-02-15T16:20:16.296Z,6.56
2023-02-15T16:22:42.745Z,6.47
2023-02-15T16:25:43.469Z,6.54
2023-02-15T16:28:13.275Z,6.40
2023-02-15T16:30:40.233Z,6.23
2023-02-15T16:33:17.328Z,6.24
2023-02-15T16:35:57.791Z,6.09
2023-02-15T16:38:55.067Z,6.04
2023-02-15T16:41:27.417Z,6.02
2023-02-15T16:43:57.031Z,6.04
2023-02-15T16:46:28.115Z,5.92
2023-02-15T16:48:58.758Z,5.82
2023-02-15T16:51:28.783Z,5.70
2023-02-15T16:53:56.900Z,5.72
2023-02-15T16:56:30.111Z,5.52
2023-02-15T16:58:57.592Z,5.49
2023-02-15T17:01:27.305Z,5.37
2023-02-15T17:04:13.393Z,5.32
2023-02-15T17:06:39.804Z,5.30
2023-02-15T17:09:14.928Z,5.32
2023-02-15T17:11:42.837Z,5.30
2023-02-15T17:14:09.068Z,5.25
2023-02-15T17:16:54.510Z,5.21
2023-02-15T17:19:23.685Z,5.19
2023-02-15T17:21:53.471Z,5.17
2023-02-15T17:24:29.258Z,5.15
2023-02-15T17:26:59.249Z,5.20
2023-02-15T17:29:38.518Z,5.16
2023-02-15T17:32:12.919Z,5.17
2023-02-15T17:34:59.630Z,5.07
2023-02-15T17:37:44.209Z,4.95
2023-02-15T17:40:28.007Z,4.96
2023-02-15T17:42:54.567Z,4.95
2023-02-15T17:45:22.521Z,4.88
2023-02-15T17:47:50.216Z,4.87
2023-02-15T17:50:20.953Z,4.86
2023-02-15T17:52:47.666Z,5.02
2023-02-15T17:55:16.706Z,4.90
2023-02-15T17:57:42.996Z,4.75
2023-02-15T18:00:14.598Z,4.74
2023-02-15T18:02:41.428Z,4.65
2023-02-15T18:05:14.768Z,4.65
2023-02-15T18:07:41.079Z,4.51
2023-02-15T18:10:17.062Z,4.60
2023-02-15T18:12:43.364Z,4.74
2023-02-15T18:15:12.291Z,4.64
2023-02-15T18:17:42.634Z,4.61
2023-02-15T18:20:18.006Z,4.48
2023-02-15T18:22:44.970Z,4.41
2023-02-15T18:25:16.181Z,4.36
2023-02-15T18:27:42.695Z,4.34
2023-02-15T18:30:14.681Z,4.36
2023-02-15T18:32:41.534Z,4.29
2023-02-15T18:35:08.106Z,4.26
2023-02-15T18:37:34.664Z,4.25
2023-02-15T18:40:02.148Z,4.13
2023-02-15T18:42:34.240Z,4.07
2023-02-15T18:45:21.949Z,4.18
2023-02-15T18:47:48.554Z,3.96
2023-02-15T18:50:20.897Z,3.99
2023-02-15T18:52:49.292Z,3.99
2023-02-15T18:55:28.249Z,3.99
2023-02-15T18:57:57.098Z,3.97
2023-02-15T19:00:32.366Z,4.04
2023-02-15T19:03:00.036Z,4.02
2023-02-15T19:05:28.930Z,4.03
2023-02-15T19:07:56.972Z,3.97
2023-02-15T19:10:26.024Z,3.84
2023-02-15T19:12:53.688Z,3.78
2023-02-15T19:15:28.299Z,3.74
2023-02-15T19:17:54.687Z,3.72
2023-02-15T19:20:24.322Z,3.65
2023-02-15T19:22:53.099Z,3.52
2023-02-15T19:25:25.602Z,3.56
2023-02-15T19:27:53.344Z,3.54
2023-02-15T19:30:24.437Z,3.46
2023-02-15T19:32:50.821Z,3.45
2023-02-15T19:35:19.830Z,3.46
2023-02-15T19:37:50.051Z,3.36
2023-02-15T19:40:36.995Z,3.30
2023-02-15T19:43:03.756Z,3.17
2023-02-15T19:45:31.531Z,3.24
2023-02-15T19:48:00.283Z,3.12
2023-02-15T19:50:30.698Z,3.11
2023-02-15T19:52:57.430Z,3.16
2023-02-15T19:55:29.994Z,3.12
2023-02-15T19:57:58.026Z,3.13
2023-02-15T20:00:26.971Z,3.07
2023-02-15T20:02:53.755Z,3.07
2023-02-15T20:05:20.437Z,2.96
2023-02-15T20:07:49.142Z,2.93
2023-02-15T20:10:20.597Z,2.91
2023-02-15T20:12:47.691Z,2.83
2023-02-15T20:15:26.181Z,2.80
2023-02-15T20:17:52.998Z,2.78
2023-02-15T20:20:20.572Z,2.73
2023-02-15T20:22:49.450Z,2.79
2023-02-15T20:25:20.468Z,2.70
2023-02-15T20:27:47.910Z,2.65
2023-02-15T20:30:17.223Z,2.63
2023-02-15T20:32:44.042Z,2.72
2023-02-15T20:35:15.433Z,2.57
2023-02-15T20:37:42.181Z,2.56
2023-02-15T20:40:17.231Z,2.52
2023-02-15T20:42:44.163Z,2.51
2023-02-15T20:45:21.149Z,2.39
2023-02-15T20:47:52.090Z,2.24
2023-02-15T20:50:27.184Z,2.29
2023-02-15T20:52:55.932Z,2.23
2023-02-15T20:55:25.567Z,2.14
2023-02-15T20:57:52.009Z,2.13
2023-02-15T21:00:24.092Z,2.08
2023-02-15T21:02:58.954Z,2.07
2023-02-15T21:05:27.096Z,2.05
2023-02-15T21:07:53.939Z,1.99
2023-02-15T21:10:31.445Z,1.93
2023-02-15T21:13:00.262Z,1.97
2023-02-15T21:15:32.768Z,1.92
2023-02-15T21:18:01.938Z,1.90
2023-02-15T21:20:30.286Z,1.87
2023-02-15T21:22:59.782Z,1.87
2023-02-15T21:25:35.035Z,1.74
2023-02-15T21:28:02.261Z,1.76
2023-02-15T21:30:29.363Z,1.75
2023-02-15T21:32:55.682Z,1.79
2023-02-15T21:35:22.733Z,1.79
2023-02-15T21:37:51.069Z,1.72
2023-02-15T21:40:25.826Z,1.61
2023-02-15T21:42:52.237Z,1.54
2023-02-15T21:45:19.005Z,1.58
2023-02-15T21:47:45.321Z,1.53
2023-02-15T21:50:22.944Z,1.60
2023-02-15T21:52:49.270Z,1.58
2023-02-15T21:55:16.268Z,1.57
2023-02-15T21:57:42.689Z,1.50
2023-02-15T22:00:20.045Z,1.41
2023-02-15T22:02:48.844Z,1.37
2023-02-15T22:05:29.981Z,1.46
2023-02-15T22:07:56.499Z,1.34
2023-02-15T22:10:28.654Z,1.41
2023-02-15T22:12:55.461Z,1.46
2023-02-15T22:15:23.894Z,1.39
2023-02-15T22:17:51.343Z,1.41
2023-02-15T22:20:20.275Z,1.32
2023-02-15T22:22:47.791Z,1.24
2023-02-15T22:25:17.048Z,1.25
2023-02-15T22:27:45.667Z,1.29
2023-02-15T22:30:21.412Z,1.38
2023-02-15T22:32:48.218Z,1.35
2023-02-15T22:35:21.701Z,1.33
2023-02-15T22:37:48.010Z,1.26
2023-02-15T22:40:16.321Z,1.18
2023-02-15T22:42:46.454Z,1.29
2023-02-15T22:45:19.132Z,1.26
2023-02-15T22:47:48.232Z,1.16
2023-02-15T22:50:20.382Z,1.20
2023-02-15T22:52:48.175Z,1.23
2023-02-15T22:55:20.102Z,1.06
2023-02-15T22:57:49.307Z,1.10
2023-02-15T23:00:18.671Z,1.06
2023-02-15T23:02:45.187Z,1.07
2023-02-15T23:05:17.508Z,1.01
2023-02-15T23:07:43.837Z,0.97
2023-02-15T23:10:10.414Z,1.08
2023-02-15T23:12:36.701Z,1.15
2023-02-15T23:15:03.147Z,1.18
2023-02-15T23:17:29.474Z,1.18
2023-02-15T23:19:55.778Z,1.19
2023-02-15T23:22:22.098Z,1.12
2023-02-15T23:24:52.504Z,0.92
2023-02-15T23:27:19.041Z,0.91
2023-02-15T23:29:46.141Z,0.82
2023-02-15T23:32:14.344Z,0.79
2023-02-15T23:34:42.265Z,0.72
2023-02-15T23:37:12.591Z,0.73
2023-02-15T23:39:38.917Z,0.69
2023-02-15T23:42:09.497Z,0.65
2023-02-15T23:44:36.549Z,0.64
2023-02-15T23:47:03.088Z,0.63
2023-02-15T23:49:29.388Z,0.64
2023-02-15T23:51:57.152Z,0.58
2023-02-15T23:54:26.224Z,0.55
2023-02-15T23:56:54.900Z,0.55
2023-02-15T23:59:27.654Z,0.58
